createdAt,value
2023-04-24T00:02:02.117Z,5.80
2023-04-24T00:04:29.437Z,5.67
2023-04-24T00:06:58.298Z,6.23
2023-04-24T00:09:25.425Z,5.33
2023-04-24T00:11:52.775Z,5.37
2023-04-24T00:14:19.739Z,5.60
2023-04-24T00:16:46.716Z,5.50
2023-04-24T00:19:13.726Z,5.07
2023-04-24T00:21:42.094Z,5.80
2023-04-24T00:24:12.579Z,5.30
2023-04-24T00:26:39.520Z,5.23
2023-04-24T00:29:06.448Z,5.10
2023-04-24T00:31:35.832Z,4.23
2023-04-24T00:34:03.936Z,5.80
2023-04-24T00:36:31.910Z,4.77
2023-04-24T00:38:59.730Z,5.50
2023-04-24T00:41:26.829Z,5.70
2023-04-24T00:43:54.447Z,5.03
2023-04-24T00:46:22.425Z,5.30
2023-04-24T00:48:49.362Z,5.43
2023-04-24T00:51:16.825Z,5.20
2023-04-24T00:53:43.784Z,5.00
2023-04-24T00:56:11.254Z,5.50
2023-04-24T00:58:38.295Z,5.63
2023-04-24T01:01:08.138Z,5.33
2023-04-24T01:03:38.299Z,5.70
2023-04-24T01:06:06.763Z,5.73
2023-04-24T01:08:36.045Z,5.80
2023-04-24T01:11:06.159Z,5.67
2023-04-24T01:13:34.293Z,5.20
2023-04-24T01:16:02.102Z,5.57
2023-04-24T01:18:29.224Z,5.00
2023-04-24T01:21:00.892Z,5.87
2023-04-24T01:23:28.297Z,5.97
2023-04-24T01:25:55.763Z,5.57
2023-04-24T01:28:23.389Z,5.60
2023-04-24T01:30:50.732Z,4.90
2023-04-24T01:33:18.348Z,5.33
2023-04-24T01:35:45.787Z,5.60
2023-04-24T01:38:12.909Z,6.93
2023-04-24T01:40:39.893Z,6.10
2023-04-24T01:43:06.943Z,5.80
2023-04-24T01:45:34.095Z,5.33
2023-04-24T01:48:02.107Z,5.90
2023-04-24T01:50:29.243Z,6.03
2023-04-24T01:52:56.421Z,5.90
2023-04-24T01:55:23.371Z,6.30
2023-04-24T01:57:51.214Z,5.90
2023-04-24T02:00:18.130Z,6.37
2023-04-24T02:02:48.117Z,6.50
2023-04-24T02:05:16.035Z,7.00
2023-04-24T02:07:42.948Z,6.40
2023-04-24T02:10:10.798Z,5.33
2023-04-24T02:12:37.800Z,5.57
2023-04-24T02:15:05.611Z,5.70
2023-04-24T02:17:32.591Z,5.70
2023-04-24T02:19:59.587Z,6.23
2023-04-24T02:22:26.477Z,5.40
2023-04-24T02:24:53.389Z,6.30
2023-04-24T02:27:20.353Z,5.73
2023-04-24T02:29:47.262Z,6.50
2023-04-24T02:32:16.523Z,6.93
2023-04-24T02:34:43.654Z,5.90
2023-04-24T02:37:10.846Z,6.37
2023-04-24T02:39:37.856Z,6.30
2023-04-24T02:42:04.997Z,5.77
2023-04-24T02:44:31.920Z,6.43
2023-04-24T02:46:58.825Z,6.23
2023-04-24T02:49:25.704Z,5.93
2023-04-24T02:51:52.666Z,6.37
2023-04-24T02:54:19.619Z,6.60
2023-04-24T02:56:46.486Z,5.30
2023-04-24T02:59:13.673Z,6.33
2023-04-24T03:01:40.769Z,6.50
2023-04-24T03:04:08.001Z,6.67
2023-04-24T03:06:36.432Z,5.97
2023-04-24T03:09:04.551Z,6.30
2023-04-24T03:11:31.543Z,5.80
2023-04-24T03:13:58.509Z,6.63
2023-04-24T03:16:25.486Z,6.70
2023-04-24T03:18:53.139Z,5.67
2023-04-24T03:21:20.266Z,6.60
2023-04-24T03:23:47.161Z,6.67
2023-04-24T03:26:14.072Z,6.73
2023-04-24T03:28:40.986Z,6.83
2023-04-24T03:31:08.064Z,7.07
2023-04-24T03:33:34.967Z,6.70
2023-04-24T03:36:01.891Z,6.60
2023-04-24T03:38:28.801Z,6.57
2023-04-24T03:40:55.752Z,6.60
2023-04-24T03:43:22.656Z,7.77
2023-04-24T03:45:49.628Z,5.97
2023-04-24T03:48:16.598Z,6.47
2023-04-24T03:50:43.517Z,6.30
2023-04-24T03:53:10.535Z,6.73
2023-04-24T03:55:37.451Z,5.20
2023-04-24T03:58:04.342Z,6.70
2023-04-24T04:00:32.858Z,5.63
2023-04-24T04:03:00.217Z,6.00
2023-04-24T04:05:27.449Z,5.63
2023-04-24T04:07:54.424Z,6.03
2023-04-24T04:10:21.605Z,6.70
2023-04-24T04:12:48.664Z,5.73
2023-04-24T04:15:15.602Z,5.77
2023-04-24T04:17:42.630Z,5.93
2023-04-24T04:20:12.887Z,5.27
2023-04-24T04:22:40.935Z,5.33
2023-04-24T04:25:09.399Z,6.33
2023-04-24T04:27:36.373Z,6.30
2023-04-24T04:30:05.673Z,5.80
2023-04-24T04:32:35.887Z,6.23
2023-04-24T04:35:06.124Z,5.90
2023-04-24T04:37:34.365Z,5.73
2023-04-24T04:40:02.495Z,5.63
2023-04-24T04:42:30.024Z,5.37
2023-04-24T04:44:58.404Z,5.00
2023-04-24T04:47:25.835Z,5.93
2023-04-24T04:49:52.935Z,6.40
2023-04-24T04:52:20.441Z,5.13
2023-04-24T04:54:47.449Z,5.33
2023-04-24T04:57:14.480Z,4.87
2023-04-24T04:59:42.423Z,4.80
2023-04-24T05:02:10.007Z,4.97
2023-04-24T05:04:37.591Z,4.87
2023-04-24T05:07:04.763Z,3.80
2023-04-24T05:09:31.640Z,3.93
2023-04-24T05:11:58.576Z,4.30
2023-04-24T05:14:25.454Z,4.10
2023-04-24T05:16:52.481Z,3.60
2023-04-24T05:19:19.390Z,4.10
2023-04-24T05:21:46.427Z,4.10
2023-04-24T05:24:13.368Z,4.10
2023-04-24T05:26:40.269Z,4.40
2023-04-24T05:29:07.313Z,3.30
2023-04-24T05:31:34.285Z,3.30
2023-04-24T05:34:01.472Z,2.60
2023-04-24T05:36:28.896Z,2.80
2023-04-24T05:38:56.446Z,2.60
2023-04-24T05:41:23.596Z,2.30
2023-04-24T05:43:50.808Z,2.07
2023-04-24T05:46:17.810Z,2.17
2023-04-24T05:48:44.749Z,1.93
2023-04-24T05:51:11.662Z,2.10
2023-04-24T05:53:38.612Z,2.07
2023-04-24T05:56:05.782Z,2.97
2023-04-24T05:58:40.571Z,1.90
2023-04-24T06:01:07.488Z,1.80
2023-04-24T06:03:34.886Z,1.60
2023-04-24T06:06:01.919Z,1.40
2023-04-24T06:08:28.841Z,1.43
2023-04-24T06:10:55.792Z,1.73
2023-04-24T06:13:22.668Z,4.03
2023-04-24T06:15:49.588Z,4.17
2023-04-24T06:18:16.761Z,7.30
2023-04-24T06:20:43.690Z,5.80
2023-04-24T06:23:10.606Z,9.80
2023-04-24T06:25:37.587Z,2.90
2023-04-24T06:28:04.531Z,1.53
2023-04-24T06:30:31.819Z,1.10
2023-04-24T06:33:03.354Z,1.43
2023-04-24T06:35:40.189Z,1.33
2023-04-24T06:38:07.356Z,1.40
2023-04-24T06:43:03.665Z,1.50
2023-04-24T06:45:31.176Z,1.07
2023-04-24T06:47:58.406Z,1.07
2023-04-24T06:50:26.087Z,0.70
2023-04-24T06:52:53.184Z,0.60
2023-04-24T06:55:20.136Z,0.80
2023-04-24T06:57:47.082Z,0.70
2023-04-24T07:00:14.791Z,0.90
2023-04-24T07:02:41.935Z,0.90
2023-04-24T07:05:09.400Z,1.47
2023-04-24T07:07:38.853Z,0.90
2023-04-24T07:10:06.977Z,6.43
2023-04-24T07:12:33.970Z,15.43
2023-04-24T07:15:01.855Z,1.50
2023-04-24T07:17:28.853Z,0.90
2023-04-24T07:19:55.760Z,0.70
2023-04-24T07:22:23.070Z,0.50
2023-04-24T07:24:49.954Z,0.60
2023-04-24T07:27:16.888Z,0.60
2023-04-24T07:29:44.572Z,0.60
2023-04-24T07:32:12.016Z,0.90
2023-04-24T07:34:38.904Z,0.80
2023-04-24T07:37:06.245Z,0.70
2023-04-24T07:39:33.267Z,0.60
2023-04-24T07:42:00.338Z,0.60
2023-04-24T07:44:27.577Z,0.70
2023-04-24T07:46:55.017Z,0.90
2023-04-24T07:49:22.152Z,0.60
2023-04-24T07:51:50.361Z,0.80
2023-04-24T07:54:17.677Z,0.70
2023-04-24T07:56:44.965Z,0.50
2023-04-24T07:59:12.366Z,0.50
2023-04-24T08:01:39.540Z,0.90
2023-04-24T08:04:06.869Z,1.90
2023-04-24T08:06:34.193Z,0.93
2023-04-24T08:09:01.844Z,1.20
2023-04-24T08:11:29.035Z,1.90
2023-04-24T08:13:56.162Z,0.60
2023-04-24T08:16:25.067Z,2.40
2023-04-24T08:18:53.838Z,0.50
2023-04-24T08:21:21.691Z,1.93
2023-04-24T08:23:48.647Z,1.73
2023-04-24T08:26:15.655Z,1.17
2023-04-24T08:28:43.422Z,0.93
2023-04-24T08:31:10.340Z,2.53
2023-04-24T08:33:37.586Z,0.60
2023-04-24T08:36:06.300Z,0.60
2023-04-24T08:38:33.803Z,0.50
2023-04-24T08:41:02.651Z,1.10
2023-04-24T08:43:29.748Z,0.57
2023-04-24T08:45:58.130Z,0.60
2023-04-24T08:48:30.959Z,0.80
2023-04-24T08:51:00.557Z,0.70
2023-04-24T08:53:27.996Z,0.50
2023-04-24T08:55:57.739Z,2.70
2023-04-24T08:58:27.558Z,1.93
2023-04-24T09:00:58.794Z,2.70
2023-04-24T09:03:28.628Z,0.60
2023-04-24T09:05:56.850Z,0.80
2023-04-24T09:08:26.925Z,0.73
2023-04-24T09:10:54.121Z,1.40
2023-04-24T09:13:24.521Z,0.93
2023-04-24T09:15:51.504Z,0.70
2023-04-24T09:18:18.782Z,0.80
2023-04-24T09:21:08.692Z,0.90
2023-04-24T09:23:35.962Z,0.90
2023-04-24T09:26:06.063Z,0.70
2023-04-24T09:28:37.446Z,0.80
2023-04-24T09:31:16.729Z,0.90
2023-04-24T09:34:02.503Z,0.83
2023-04-24T09:36:38.797Z,0.90
2023-04-24T09:39:12.157Z,0.90
2023-04-24T09:41:53.757Z,1.03
2023-04-24T09:44:25.984Z,0.70
2023-04-24T09:46:55.760Z,0.70
2023-04-24T09:49:30.976Z,0.73
2023-04-24T09:52:12.059Z,0.70
2023-04-24T09:54:41.425Z,0.80
2023-04-24T09:57:11.587Z,1.90
2023-04-24T09:59:46.962Z,5.73
2023-04-24T10:02:21.513Z,1.00
2023-04-24T10:05:00.693Z,0.70
2023-04-24T10:07:28.258Z,0.83
2023-04-24T10:09:56.166Z,1.20
2023-04-24T10:12:24.104Z,1.00
2023-04-24T10:14:51.694Z,0.50
2023-04-24T10:17:20.961Z,0.60
2023-04-24T10:19:49.393Z,0.73
2023-04-24T10:22:18.742Z,0.90
2023-04-24T10:24:46.621Z,0.50
2023-04-24T10:27:16.309Z,0.63
2023-04-24T10:29:45.896Z,0.80
2023-04-24T10:32:12.885Z,0.70
2023-04-24T10:34:40.011Z,0.90
2023-04-24T10:37:07.234Z,0.80
2023-04-24T10:39:34.607Z,0.77
2023-04-24T10:42:01.757Z,0.80
2023-04-24T10:44:38.118Z,0.80
2023-04-24T10:47:05.470Z,0.90
2023-04-24T10:49:33.231Z,0.97
2023-04-24T10:52:07.822Z,0.77
2023-04-24T10:54:46.971Z,1.10
2023-04-24T10:57:30.942Z,0.80
2023-04-24T11:00:20.280Z,0.80
2023-04-24T11:02:53.822Z,1.00
2023-04-24T11:05:22.944Z,1.20
2023-04-24T11:08:16.887Z,0.90
2023-04-24T11:10:59.290Z,0.60
2023-04-24T11:13:30.553Z,0.97
2023-04-24T11:16:37.128Z,0.80
2023-04-24T11:19:17.623Z,1.50
2023-04-24T11:22:06.304Z,0.87
2023-04-24T11:24:48.333Z,0.90
2023-04-24T11:27:20.573Z,0.70
2023-04-24T11:29:57.723Z,0.80
2023-04-24T11:32:35.147Z,0.70
2023-04-24T11:35:16.206Z,0.80
2023-04-24T11:40:26.503Z,0.80
2023-04-24T11:42:57.798Z,0.80
2023-04-24T11:45:28.069Z,1.10
2023-04-24T11:47:55.528Z,0.83
2023-04-24T11:50:28.816Z,0.90
2023-04-24T11:52:56.800Z,0.90
2023-04-24T11:55:23.966Z,0.90
2023-04-24T11:57:54.120Z,0.90
2023-04-24T12:00:30.641Z,1.07
2023-04-24T12:03:09.530Z,1.10
2023-04-24T12:05:37.353Z,1.03
2023-04-24T12:08:04.558Z,0.90
2023-04-24T12:10:33.773Z,1.20
2023-04-24T12:13:01.603Z,1.00
2023-04-24T12:15:28.952Z,0.80
2023-04-24T12:17:57.675Z,0.80
2023-04-24T12:20:31.809Z,0.90
2023-04-24T12:23:01.365Z,1.30
2023-04-24T12:25:33.451Z,0.90
2023-04-24T12:28:06.951Z,0.60
2023-04-24T12:30:46.495Z,0.70
2023-04-24T12:33:13.634Z,0.70
2023-04-24T12:35:41.985Z,0.73
2023-04-24T12:38:13.841Z,0.60
2023-04-24T12:40:42.701Z,0.70
2023-04-24T12:43:20.580Z,0.77
2023-04-24T12:45:49.370Z,0.87
2023-04-24T12:48:16.591Z,0.87
2023-04-24T12:50:46.527Z,0.60
2023-04-24T12:53:14.891Z,0.70
2023-04-24T12:55:41.869Z,1.07
2023-04-24T12:58:09.343Z,0.70
2023-04-24T13:00:36.838Z,0.70
2023-04-24T13:03:04.629Z,0.70
2023-04-24T13:05:31.938Z,0.90
2023-04-24T13:07:59.189Z,0.60
2023-04-24T13:10:26.284Z,0.67
2023-04-24T13:12:53.387Z,0.60
2023-04-24T13:15:20.325Z,0.70
2023-04-24T13:17:47.291Z,0.70
2023-04-24T13:20:14.325Z,0.60
2023-04-24T13:22:41.348Z,0.63
2023-04-24T13:25:08.699Z,0.77
2023-04-24T13:27:35.849Z,0.70
2023-04-24T13:30:02.900Z,0.67
2023-04-24T13:32:30.037Z,0.73
2023-04-24T13:34:57.903Z,0.70
2023-04-24T13:37:24.830Z,1.00
2023-04-24T13:39:52.381Z,0.80
2023-04-24T13:42:20.955Z,0.63
2023-04-24T13:44:47.974Z,0.80
2023-04-24T13:47:14.858Z,0.70
2023-04-24T13:49:42.076Z,0.90
2023-04-24T13:52:09.083Z,0.60
2023-04-24T13:54:36.131Z,0.87
2023-04-24T13:57:04.223Z,0.90
2023-04-24T13:59:31.242Z,0.80
2023-04-24T14:01:58.294Z,1.20
2023-04-24T14:04:25.806Z,0.80
2023-04-24T14:06:52.926Z,0.80
2023-04-24T14:09:19.926Z,1.10
2023-04-24T14:11:46.908Z,7.37
2023-04-24T14:14:13.853Z,15.23
2023-04-24T14:16:41.028Z,0.70
2023-04-24T14:19:08.202Z,0.87
2023-04-24T14:21:35.390Z,0.83
2023-04-24T14:24:02.390Z,0.60
2023-04-24T14:26:29.385Z,0.60
2023-04-24T14:29:04.133Z,0.77
2023-04-24T14:31:38.381Z,1.10
2023-04-24T14:34:05.843Z,0.80
2023-04-24T14:36:32.808Z,0.97
2023-04-24T14:38:59.789Z,1.10
2023-04-24T14:41:26.705Z,0.73
2023-04-24T14:43:53.613Z,1.33
2023-04-24T14:46:21.415Z,0.77
2023-04-24T14:48:48.519Z,0.83
2023-04-24T14:51:15.580Z,1.00
2023-04-24T14:53:42.645Z,1.10
2023-04-24T14:56:09.596Z,1.87
2023-04-24T14:58:36.519Z,3.83
2023-04-24T15:01:03.653Z,1.23
2023-04-24T15:03:31.131Z,1.27
2023-04-24T15:05:58.398Z,1.10
2023-04-24T15:08:25.376Z,1.20
2023-04-24T15:10:52.611Z,0.90
2023-04-24T15:13:20.186Z,1.00
2023-04-24T15:15:50.247Z,1.00
2023-04-24T15:18:17.171Z,1.50
2023-04-24T15:20:44.161Z,0.97
2023-04-24T15:23:11.490Z,1.10
2023-04-24T15:25:39.317Z,1.07
2023-04-24T15:28:07.002Z,0.80
2023-04-24T15:30:34.305Z,1.10
2023-04-24T15:33:02.614Z,1.00
2023-04-24T15:35:29.693Z,1.30
2023-04-24T15:37:56.714Z,1.27
2023-04-24T15:40:23.823Z,1.17
2023-04-24T15:42:51.147Z,1.00
2023-04-24T15:45:18.305Z,1.30
2023-04-24T15:47:49.457Z,1.20
2023-04-24T15:50:21.623Z,1.20
2023-04-24T15:52:48.737Z,1.43
2023-04-24T15:55:15.698Z,1.00
2023-04-24T15:57:43.589Z,1.20
2023-04-24T16:00:11.295Z,1.20
2023-04-24T16:02:39.095Z,0.80
2023-04-24T16:05:07.434Z,0.90
2023-04-24T16:07:35.308Z,1.10
2023-04-24T16:10:02.451Z,0.87
2023-04-24T16:12:29.442Z,0.90
2023-04-24T16:14:56.434Z,1.30
2023-04-24T16:17:23.700Z,0.90
2023-04-24T16:19:50.730Z,1.40
2023-04-24T16:22:17.637Z,0.97
2023-04-24T16:24:47.058Z,1.60
2023-04-24T16:27:15.745Z,2.50
2023-04-24T16:29:42.801Z,1.40
2023-04-24T16:32:10.938Z,1.90
2023-04-24T16:34:38.053Z,0.93
2023-04-24T16:37:06.613Z,6.67
2023-04-24T16:39:34.127Z,6.40
2023-04-24T16:42:01.802Z,1.47
2023-04-24T16:44:29.109Z,1.50
2023-04-24T16:46:56.928Z,0.90
2023-04-24T16:49:24.039Z,1.60
2023-04-24T16:51:51.249Z,1.23
2023-04-24T16:54:18.215Z,1.47
2023-04-24T16:56:45.121Z,3.23
2023-04-24T16:59:12.685Z,1.13
2023-04-24T17:01:39.834Z,1.90
2023-04-24T17:04:07.048Z,1.63
2023-04-24T17:06:34.347Z,1.53
2023-04-24T17:09:02.320Z,1.10
2023-04-24T17:11:31.003Z,1.50
2023-04-24T17:13:59.881Z,3.40
2023-04-24T17:16:27.247Z,10.63
2023-04-24T17:18:54.454Z,1.70
2023-04-24T17:21:21.390Z,1.00
2023-04-24T17:23:48.330Z,1.10
2023-04-24T17:26:15.378Z,1.13
2023-04-24T17:28:42.385Z,0.90
2023-04-24T17:31:09.330Z,1.13
2023-04-24T17:33:36.248Z,3.53
2023-04-24T17:36:03.517Z,1.20
2023-04-24T17:38:30.964Z,1.40
2023-04-24T17:40:58.408Z,1.67
2023-04-24T17:43:25.485Z,1.00
2023-04-24T17:45:56.370Z,1.50
2023-04-24T17:48:23.722Z,23.10
2023-04-24T17:50:50.820Z,3.33
2023-04-24T17:53:21.720Z,1.20
2023-04-24T17:55:48.895Z,1.13
2023-04-24T17:58:16.855Z,1.17
2023-04-24T18:00:43.777Z,1.10
2023-04-24T18:03:11.045Z,4.30
2023-04-24T18:05:39.259Z,1.20
2023-04-24T18:08:06.510Z,1.33
2023-04-24T18:10:36.941Z,1.10
2023-04-24T18:13:04.994Z,1.73
2023-04-24T18:15:32.805Z,1.40
2023-04-24T18:17:59.895Z,1.03
2023-04-24T18:20:27.546Z,1.10
2023-04-24T18:22:54.624Z,1.80
2023-04-24T18:25:26.801Z,1.13
2023-04-24T18:27:55.747Z,1.40
2023-04-24T18:30:24.430Z,1.03
2023-04-24T18:32:53.386Z,0.83
2023-04-24T18:35:21.478Z,1.13
2023-04-24T18:37:49.328Z,0.70
2023-04-24T18:40:17.049Z,0.60
2023-04-24T18:42:44.707Z,0.60
2023-04-24T18:45:14.704Z,9.63
2023-04-24T18:47:43.286Z,2.50
2023-04-24T18:50:12.050Z,0.60
2023-04-24T18:52:40.631Z,0.87
2023-04-24T18:55:09.661Z,0.80
2023-04-24T18:57:36.600Z,0.80
2023-04-24T19:00:04.595Z,0.93
2023-04-24T19:02:33.047Z,0.80
2023-04-24T19:05:00.048Z,0.80
2023-04-24T19:07:27.031Z,0.83
2023-04-24T19:09:53.938Z,1.00
2023-04-24T19:12:22.777Z,0.80
2023-04-24T19:14:51.556Z,0.80
2023-04-24T19:17:23.516Z,0.80
2023-04-24T19:19:51.249Z,0.63
2023-04-24T19:22:20.712Z,1.13
2023-04-24T19:24:47.674Z,5.67
2023-04-24T19:27:14.855Z,3.40
2023-04-24T19:29:42.137Z,1.20
2023-04-24T19:32:09.323Z,1.00
2023-04-24T19:34:37.672Z,4.50
2023-04-24T19:37:06.083Z,1.00
2023-04-24T19:39:32.991Z,1.10
2023-04-24T19:42:01.250Z,1.33
2023-04-24T19:44:28.222Z,1.10
2023-04-24T19:46:55.234Z,1.10
2023-04-24T19:49:22.306Z,2.47
2023-04-24T19:51:49.284Z,1.40
2023-04-24T19:54:16.721Z,1.67
2023-04-24T19:56:43.589Z,1.83
2023-04-24T19:59:10.703Z,1.80
2023-04-24T20:01:39.631Z,1.43
2023-04-24T20:04:08.062Z,1.10
2023-04-24T20:06:35.283Z,1.50
2023-04-24T20:09:02.232Z,2.10
2023-04-24T20:11:29.132Z,1.60
2023-04-24T20:13:56.518Z,4.50
2023-04-24T20:16:23.500Z,2.23
2023-04-24T20:18:50.622Z,17.10
2023-04-24T20:21:17.847Z,11.43
2023-04-24T20:23:44.711Z,3.80
2023-04-24T20:26:11.628Z,2.50
2023-04-24T20:28:38.580Z,2.27
2023-04-24T20:31:05.653Z,2.47
2023-04-24T20:33:32.618Z,3.13
2023-04-24T20:35:59.564Z,1.80
2023-04-24T20:38:26.536Z,2.33
2023-04-24T20:40:58.074Z,5.67
2023-04-24T20:43:28.804Z,2.77
2023-04-24T20:45:57.899Z,4.13
2023-04-24T20:48:26.315Z,2.40
2023-04-24T20:50:53.936Z,2.63
2023-04-24T20:53:21.162Z,2.27
2023-04-24T20:55:48.627Z,2.40
2023-04-24T20:58:18.557Z,2.40
2023-04-24T21:00:46.831Z,1.80
2023-04-24T21:03:14.223Z,2.13
2023-04-24T21:05:41.334Z,7.73
2023-04-24T21:08:08.300Z,6.67
2023-04-24T21:10:35.265Z,2.83
2023-04-24T21:13:02.188Z,2.30
2023-04-24T21:15:29.483Z,1.90
2023-04-24T21:17:56.899Z,3.07
2023-04-24T21:20:25.385Z,2.33
2023-04-24T21:22:52.434Z,3.00
2023-04-24T21:25:19.417Z,2.73
2023-04-24T21:27:46.478Z,3.47
2023-04-24T21:30:13.642Z,3.33
2023-04-24T21:32:40.918Z,3.20
2023-04-24T21:35:08.365Z,3.50
2023-04-24T21:37:36.757Z,2.97
2023-04-24T21:40:06.910Z,2.80
2023-04-24T21:42:33.902Z,3.77
2023-04-24T21:45:00.822Z,3.10
2023-04-24T21:47:27.709Z,3.60
2023-04-24T21:49:54.665Z,3.60
2023-04-24T21:52:21.559Z,3.40
2023-04-24T21:54:48.545Z,3.60
2023-04-24T21:57:15.795Z,3.47
2023-04-24T21:59:43.014Z,3.33
2023-04-24T22:02:10.426Z,3.50
2023-04-24T22:04:37.526Z,4.40
2023-04-24T22:07:04.739Z,3.50
2023-04-24T22:09:31.631Z,4.00
2023-04-24T22:11:58.689Z,3.87
2023-04-24T22:14:26.144Z,3.50
2023-04-24T22:16:53.026Z,4.23
2023-04-24T22:19:19.954Z,2.97
2023-04-24T22:21:46.841Z,3.67
2023-04-24T22:24:14.106Z,3.67
2023-04-24T22:26:41.118Z,3.10
2023-04-24T22:29:08.063Z,3.70
2023-04-24T22:31:35.135Z,3.00
2023-04-24T22:34:02.100Z,3.67
2023-04-24T22:36:29.014Z,3.50
2023-04-24T22:38:56.112Z,3.80
2023-04-24T22:41:23.330Z,3.50
2023-04-24T22:43:50.822Z,3.53
2023-04-24T22:46:18.112Z,4.07
2023-04-24T22:48:45.770Z,3.70
2023-04-24T22:51:12.742Z,3.77
2023-04-24T22:53:39.629Z,3.97
2023-04-24T22:56:07.199Z,4.17
2023-04-24T22:58:34.070Z,3.67
2023-04-24T23:01:01.195Z,3.83
2023-04-24T23:03:28.319Z,4.17
2023-04-24T23:05:55.612Z,3.60
2023-04-24T23:08:22.729Z,2.87
2023-04-24T23:10:49.726Z,2.67
2023-04-24T23:13:17.336Z,3.00
2023-04-24T23:15:44.310Z,3.30
2023-04-24T23:18:12.483Z,2.70
2023-04-24T23:20:39.507Z,3.30
2023-04-24T23:23:06.611Z,3.00
2023-04-24T23:25:33.866Z,2.87
2023-04-24T23:28:00.972Z,2.90
2023-04-24T23:30:28.203Z,3.40
2023-04-24T23:32:55.482Z,3.00
2023-04-24T23:35:22.582Z,2.73
2023-04-24T23:37:49.479Z,3.00
2023-04-24T23:40:16.476Z,3.40
2023-04-24T23:42:43.346Z,2.90
2023-04-24T23:45:11.093Z,3.03
2023-04-24T23:47:38.232Z,2.87
2023-04-24T23:50:06.059Z,2.60
2023-04-24T23:52:35.237Z,2.73
2023-04-24T23:55:04.727Z,2.90
2023-04-24T23:57:32.196Z,3.20
2023-04-24T23:59:59.141Z,2.50
